createdAt,value
2022-10-31T00:00:28.465Z,7.00
2022-10-31T00:01:28.417Z,7.10
2022-10-31T00:02:28.466Z,6.90
2022-10-31T00:03:28.391Z,6.80
2022-10-31T00:04:28.386Z,6.50
2022-10-31T00:05:28.386Z,7.20
2022-10-31T00:06:28.343Z,7.40
2022-10-31T00:07:28.330Z,7.60
2022-10-31T00:08:28.348Z,6.60
2022-10-31T00:09:29.254Z,7.20
2022-10-31T00:10:28.304Z,7.60
2022-10-31T00:11:28.284Z,7.00
2022-10-31T00:12:28.351Z,6.90
2022-10-31T00:13:28.258Z,7.10
2022-10-31T00:14:28.265Z,7.20
2022-10-31T00:15:28.240Z,7.30
2022-10-31T00:16:28.228Z,7.30
2022-10-31T00:17:28.215Z,7.20
2022-10-31T00:18:28.241Z,7.10
2022-10-31T00:19:28.200Z,7.60
2022-10-31T00:20:28.187Z,6.80
2022-10-31T00:21:28.283Z,7.30
2022-10-31T00:22:28.182Z,7.70
2022-10-31T00:23:28.182Z,6.80
2022-10-31T00:24:28.137Z,7.40
2022-10-31T00:25:28.136Z,7.90
2022-10-31T00:26:28.138Z,7.10
2022-10-31T00:27:28.137Z,7.30
2022-10-31T00:28:28.091Z,7.00
2022-10-31T00:29:28.104Z,7.10
2022-10-31T00:30:28.080Z,8.00
2022-10-31T00:31:28.091Z,7.80
2022-10-31T00:32:28.048Z,7.30
2022-10-31T00:33:28.040Z,7.20
2022-10-31T00:34:28.022Z,7.50
2022-10-31T00:35:28.021Z,7.60
2022-10-31T00:36:28.031Z,7.50
2022-10-31T00:37:28.011Z,7.20
2022-10-31T00:38:27.985Z,6.80
2022-10-31T00:39:27.972Z,6.70
2022-10-31T00:40:27.952Z,6.40
2022-10-31T00:41:27.962Z,7.40
2022-10-31T00:42:27.953Z,7.10
2022-10-31T00:43:27.940Z,7.40
2022-10-31T00:44:27.913Z,6.50
2022-10-31T00:45:27.911Z,7.30
2022-10-31T00:46:27.912Z,7.20
2022-10-31T00:47:27.875Z,7.70
2022-10-31T00:48:27.899Z,7.20
2022-10-31T00:49:28.831Z,7.30
2022-10-31T00:50:27.842Z,7.60
2022-10-31T00:51:27.842Z,7.10
2022-10-31T00:52:27.815Z,7.20
2022-10-31T00:53:27.809Z,7.80
2022-10-31T00:54:27.824Z,7.50
2022-10-31T00:55:27.825Z,6.90
2022-10-31T00:56:27.777Z,7.10
2022-10-31T00:57:27.787Z,6.90
2022-10-31T00:58:27.746Z,6.90
2022-10-31T00:59:27.752Z,7.50
2022-10-31T01:00:27.728Z,7.30
2022-10-31T01:01:27.896Z,7.50
2022-10-31T01:02:27.849Z,7.20
2022-10-31T01:03:27.698Z,7.60
2022-10-31T01:04:27.707Z,7.60
2022-10-31T01:05:27.679Z,8.00
2022-10-31T01:06:27.700Z,7.60
2022-10-31T01:07:27.673Z,7.60
2022-10-31T01:08:28.597Z,7.20
2022-10-31T01:09:27.640Z,7.40
2022-10-31T01:10:27.617Z,7.40
2022-10-31T01:11:27.641Z,7.80
2022-10-31T01:12:27.611Z,7.50
2022-10-31T01:13:27.594Z,7.50
2022-10-31T01:14:27.584Z,7.40
2022-10-31T01:15:27.580Z,7.70
2022-10-31T01:16:27.591Z,7.90
2022-10-31T01:17:27.551Z,7.00
2022-10-31T01:18:27.531Z,7.90
2022-10-31T01:19:27.561Z,7.40
2022-10-31T01:20:27.512Z,7.50
2022-10-31T01:21:27.506Z,8.00
2022-10-31T01:22:27.506Z,7.70
2022-10-31T01:23:28.435Z,8.00
2022-10-31T01:24:27.468Z,7.40
2022-10-31T01:25:27.466Z,7.60
2022-10-31T01:26:27.448Z,7.60
2022-10-31T01:27:27.454Z,7.00
2022-10-31T01:28:27.436Z,7.70
2022-10-31T01:29:27.467Z,7.70
2022-10-31T01:30:27.396Z,7.10
2022-10-31T01:31:27.390Z,7.40
2022-10-31T01:32:27.383Z,7.30
2022-10-31T01:33:27.359Z,7.00
2022-10-31T01:34:27.381Z,7.40
2022-10-31T01:35:27.339Z,7.30
2022-10-31T01:36:27.331Z,7.50
2022-10-31T01:37:27.334Z,7.10
2022-10-31T01:38:27.307Z,7.20
2022-10-31T01:39:27.303Z,7.00
2022-10-31T01:40:27.328Z,7.30
2022-10-31T01:41:27.277Z,7.10
2022-10-31T01:42:27.258Z,8.00
2022-10-31T01:43:27.262Z,7.40
2022-10-31T01:44:27.232Z,7.10
2022-10-31T01:45:27.220Z,7.30
2022-10-31T01:46:27.253Z,7.50
2022-10-31T01:47:27.206Z,7.70
2022-10-31T01:48:27.190Z,7.80
2022-10-31T01:49:27.196Z,7.50
2022-10-31T01:50:27.161Z,7.50
2022-10-31T01:51:27.156Z,7.90
2022-10-31T01:52:27.161Z,8.00
2022-10-31T01:53:27.230Z,7.50
2022-10-31T01:54:27.134Z,7.50
2022-10-31T01:55:30.036Z,7.50
2022-10-31T01:56:27.097Z,7.60
2022-10-31T01:57:27.096Z,7.20
2022-10-31T01:58:27.088Z,7.40
2022-10-31T01:59:27.066Z,7.80
2022-10-31T02:00:27.071Z,6.90
2022-10-31T02:01:27.131Z,7.40
2022-10-31T02:02:27.085Z,7.30
2022-10-31T02:03:27.015Z,7.10
2022-10-31T02:04:27.019Z,7.50
2022-10-31T02:05:27.015Z,7.70
2022-10-31T02:06:27.938Z,7.40
2022-10-31T02:07:26.970Z,7.60
2022-10-31T02:08:26.967Z,8.60
2022-10-31T02:09:26.981Z,8.40
2022-10-31T02:10:26.968Z,7.60
2022-10-31T02:11:26.937Z,7.80
2022-10-31T02:12:26.915Z,7.70
2022-10-31T02:13:26.944Z,7.80
2022-10-31T02:14:26.889Z,7.60
2022-10-31T02:15:26.890Z,8.00
2022-10-31T02:16:26.879Z,7.70
2022-10-31T02:17:26.873Z,7.80
2022-10-31T02:18:26.849Z,8.00
2022-10-31T02:19:26.851Z,8.00
2022-10-31T02:20:26.817Z,7.70
2022-10-31T02:21:28.299Z,8.10
2022-10-31T02:22:26.794Z,7.90
2022-10-31T02:23:26.805Z,7.90
2022-10-31T02:24:26.776Z,8.60
2022-10-31T02:25:26.796Z,8.20
2022-10-31T02:26:26.742Z,7.70
2022-10-31T02:27:27.054Z,8.20
2022-10-31T02:28:26.731Z,7.80
2022-10-31T02:29:26.734Z,8.00
2022-10-31T02:30:26.705Z,7.70
2022-10-31T02:31:26.693Z,7.20
2022-10-31T02:32:26.693Z,7.30
2022-10-31T02:33:26.705Z,7.30
2022-10-31T02:34:26.655Z,7.90
2022-10-31T02:35:26.676Z,7.70
2022-10-31T02:36:26.645Z,7.60
2022-10-31T02:37:26.668Z,7.50
2022-10-31T02:38:26.635Z,8.00
2022-10-31T02:39:26.624Z,7.70
2022-10-31T02:40:26.589Z,8.10
2022-10-31T02:41:26.578Z,7.70
2022-10-31T02:42:26.627Z,7.70
2022-10-31T02:43:26.595Z,8.00
2022-10-31T02:44:26.537Z,7.40
2022-10-31T02:45:26.541Z,7.50
2022-10-31T02:46:26.546Z,8.10
2022-10-31T02:47:26.550Z,7.50
2022-10-31T02:48:26.541Z,8.00
2022-10-31T02:49:26.494Z,8.10
2022-10-31T02:50:26.482Z,7.80
2022-10-31T02:51:26.480Z,8.30
2022-10-31T02:52:26.476Z,8.50
2022-10-31T02:53:26.448Z,8.20
2022-10-31T02:54:26.468Z,7.60
2022-10-31T02:55:26.438Z,7.60
2022-10-31T02:56:26.430Z,8.20
2022-10-31T02:57:26.409Z,8.10
2022-10-31T02:58:26.400Z,8.00
2022-10-31T02:59:26.375Z,8.00
2022-10-31T03:00:26.389Z,7.60
2022-10-31T03:01:26.452Z,7.90
2022-10-31T03:02:26.536Z,7.90
2022-10-31T03:03:26.353Z,8.00
2022-10-31T03:04:26.325Z,8.10
2022-10-31T03:05:26.314Z,8.00
2022-10-31T03:06:26.300Z,8.10
2022-10-31T03:07:26.325Z,8.90
2022-10-31T03:08:26.293Z,7.90
2022-10-31T03:09:26.277Z,7.80
2022-10-31T03:10:26.253Z,8.20
2022-10-31T03:11:26.248Z,7.50
2022-10-31T03:12:26.237Z,7.70
2022-10-31T03:13:26.239Z,8.10
2022-10-31T03:14:26.218Z,7.90
2022-10-31T03:15:26.206Z,8.00
2022-10-31T03:16:26.192Z,7.50
2022-10-31T03:17:26.210Z,7.60
2022-10-31T03:18:26.173Z,8.00
2022-10-31T03:19:26.169Z,8.10
2022-10-31T03:20:26.148Z,7.40
2022-10-31T03:21:26.143Z,8.00
2022-10-31T03:22:26.141Z,7.70
2022-10-31T03:23:26.128Z,7.90
2022-10-31T03:24:26.100Z,7.80
2022-10-31T03:25:26.099Z,7.40
2022-10-31T03:26:26.081Z,7.60
2022-10-31T03:27:26.106Z,7.50
2022-10-31T03:28:26.051Z,7.40
2022-10-31T03:29:26.049Z,7.70
2022-10-31T03:30:26.036Z,7.20
2022-10-31T03:31:26.020Z,7.90
2022-10-31T03:32:26.019Z,7.90
2022-10-31T03:33:26.041Z,8.20
2022-10-31T03:34:26.941Z,8.20
2022-10-31T03:35:25.981Z,7.90
2022-10-31T03:36:25.984Z,8.50
2022-10-31T03:37:25.971Z,7.80
2022-10-31T03:38:25.941Z,8.20
2022-10-31T03:39:25.957Z,8.90
2022-10-31T03:40:25.908Z,9.00
2022-10-31T03:41:26.877Z,9.40
2022-10-31T03:42:25.902Z,8.10
2022-10-31T03:43:25.918Z,9.00
2022-10-31T03:44:25.888Z,8.30
2022-10-31T03:45:25.853Z,8.30
2022-10-31T03:46:25.866Z,8.20
2022-10-31T03:47:25.844Z,8.30
2022-10-31T03:48:25.858Z,8.70
2022-10-31T03:49:25.824Z,8.40
2022-10-31T03:50:25.825Z,8.40
2022-10-31T03:51:25.814Z,8.10
2022-10-31T03:52:25.781Z,8.70
2022-10-31T03:53:25.777Z,7.50
2022-10-31T03:54:25.756Z,8.30
2022-10-31T03:55:25.784Z,9.60
2022-10-31T03:56:25.727Z,9.40
2022-10-31T03:57:25.731Z,8.40
2022-10-31T03:58:25.739Z,8.20
2022-10-31T03:59:25.703Z,7.80
2022-10-31T04:00:25.719Z,7.80
2022-10-31T04:01:25.862Z,7.30
2022-10-31T04:02:25.822Z,7.30
2022-10-31T04:03:25.667Z,7.60
2022-10-31T04:04:25.646Z,7.70
2022-10-31T04:05:25.639Z,8.10
2022-10-31T04:06:25.641Z,7.50
2022-10-31T04:07:25.644Z,7.90
2022-10-31T04:08:25.618Z,7.70
2022-10-31T04:09:25.593Z,8.00
2022-10-31T04:10:31.862Z,7.10
2022-10-31T04:11:26.570Z,7.20
2022-10-31T04:12:25.562Z,7.20
2022-10-31T04:13:25.560Z,7.30
2022-10-31T04:14:25.544Z,7.70
2022-10-31T04:15:25.558Z,7.80
2022-10-31T04:16:25.511Z,7.60
2022-10-31T04:17:25.531Z,7.50
2022-10-31T04:18:25.513Z,7.20
2022-10-31T04:19:25.501Z,8.00
2022-10-31T04:20:25.493Z,8.40
2022-10-31T04:21:25.512Z,7.60
2022-10-31T04:22:25.444Z,8.00
2022-10-31T04:23:25.454Z,8.10
2022-10-31T04:24:25.461Z,8.40
2022-10-31T04:25:25.456Z,7.70
2022-10-31T04:26:25.404Z,7.50
2022-10-31T04:27:25.459Z,7.40
2022-10-31T04:28:25.401Z,7.40
2022-10-31T04:29:25.386Z,7.70
2022-10-31T04:30:25.374Z,7.60
2022-10-31T04:31:25.366Z,7.70
2022-10-31T04:32:25.348Z,7.30
2022-10-31T04:33:25.365Z,7.80
2022-10-31T04:34:26.278Z,7.30
2022-10-31T04:35:25.310Z,7.80
2022-10-31T04:36:25.329Z,7.70
2022-10-31T04:37:25.298Z,8.20
2022-10-31T04:38:25.277Z,7.80
2022-10-31T04:39:26.772Z,7.40
2022-10-31T04:40:25.266Z,7.50
2022-10-31T04:41:25.247Z,7.50
2022-10-31T04:42:25.241Z,8.00
2022-10-31T04:43:25.224Z,8.10
2022-10-31T04:44:25.213Z,8.10
2022-10-31T04:45:25.240Z,7.80
2022-10-31T04:46:25.190Z,8.40
2022-10-31T04:47:25.190Z,7.70
2022-10-31T04:48:25.192Z,8.10
2022-10-31T04:49:25.170Z,8.20
2022-10-31T04:50:25.151Z,8.00
2022-10-31T04:51:25.161Z,8.30
2022-10-31T04:52:25.141Z,8.00
2022-10-31T04:53:25.119Z,8.40
2022-10-31T04:54:25.111Z,7.80
2022-10-31T04:55:25.086Z,7.90
2022-10-31T04:56:25.100Z,8.10
2022-10-31T04:57:25.092Z,7.70
2022-10-31T04:58:25.085Z,7.50
2022-10-31T04:59:25.052Z,7.90
2022-10-31T05:00:25.046Z,8.30
2022-10-31T05:01:25.107Z,7.50
2022-10-31T05:02:25.112Z,7.30
2022-10-31T05:03:25.035Z,7.80
2022-10-31T05:04:25.383Z,7.10
2022-10-31T05:05:25.143Z,7.20
2022-10-31T05:06:24.974Z,8.00
2022-10-31T05:07:24.968Z,8.40
2022-10-31T05:08:24.990Z,7.30
2022-10-31T05:09:24.965Z,7.90
2022-10-31T05:10:24.978Z,7.80
2022-10-31T05:11:24.918Z,7.40
2022-10-31T05:12:24.914Z,7.30
2022-10-31T05:13:24.898Z,7.10
2022-10-31T05:14:24.957Z,7.40
2022-10-31T05:15:24.878Z,7.90
2022-10-31T05:16:25.827Z,7.70
2022-10-31T05:17:24.851Z,7.70
2022-10-31T05:18:24.837Z,7.80
2022-10-31T05:19:24.827Z,7.80
2022-10-31T05:20:24.819Z,7.80
2022-10-31T05:21:24.821Z,7.30
2022-10-31T05:22:24.802Z,7.50
2022-10-31T05:23:24.870Z,7.30
2022-10-31T05:24:24.775Z,7.50
2022-10-31T05:25:24.761Z,7.70
2022-10-31T05:26:24.770Z,7.90
2022-10-31T05:27:24.739Z,8.00
2022-10-31T05:28:24.761Z,8.60
2022-10-31T05:29:24.711Z,8.80
2022-10-31T05:30:24.711Z,8.80
2022-10-31T05:31:24.701Z,9.00
2022-10-31T05:32:24.701Z,8.50
2022-10-31T05:33:24.664Z,9.20
2022-10-31T05:34:24.676Z,8.60
2022-10-31T05:35:24.647Z,8.20
2022-10-31T05:36:24.644Z,8.30
2022-10-31T05:37:24.625Z,8.60
2022-10-31T05:38:24.744Z,8.20
2022-10-31T05:39:25.582Z,7.40
2022-10-31T05:40:24.624Z,8.10
2022-10-31T05:41:24.596Z,8.10
2022-10-31T05:42:24.659Z,8.50
2022-10-31T05:43:24.554Z,8.60
2022-10-31T05:44:24.567Z,7.60
2022-10-31T05:45:24.607Z,7.90
2022-10-31T05:46:24.637Z,7.60
2022-10-31T05:47:24.595Z,8.60
2022-10-31T05:48:24.504Z,8.10
2022-10-31T05:49:24.514Z,8.90
2022-10-31T05:50:24.509Z,9.70
2022-10-31T05:51:24.463Z,8.90
2022-10-31T05:52:24.466Z,8.00
2022-10-31T05:53:24.436Z,8.00
2022-10-31T05:54:24.479Z,8.40
2022-10-31T05:55:24.438Z,7.70
2022-10-31T05:56:24.444Z,8.70
2022-10-31T05:57:24.395Z,8.40
2022-10-31T05:58:24.377Z,8.00
2022-10-31T05:59:24.380Z,7.90
2022-10-31T06:00:24.383Z,7.30
2022-10-31T06:01:24.426Z,7.20
2022-10-31T06:02:24.384Z,8.10
2022-10-31T06:03:24.319Z,7.70
2022-10-31T06:04:24.400Z,8.00
2022-10-31T06:05:24.304Z,8.70
2022-10-31T06:06:24.296Z,8.10
2022-10-31T06:07:24.290Z,7.90
2022-10-31T06:08:24.326Z,7.50
2022-10-31T06:09:24.294Z,7.90
2022-10-31T06:10:24.252Z,8.00
2022-10-31T06:11:24.253Z,7.60
2022-10-31T06:12:24.238Z,7.50
2022-10-31T06:13:24.235Z,8.30
2022-10-31T06:14:24.211Z,7.70
2022-10-31T06:15:24.909Z,8.10
2022-10-31T06:16:24.213Z,7.40
2022-10-31T06:17:24.172Z,8.00
2022-10-31T06:18:24.202Z,8.20
2022-10-31T06:19:24.175Z,7.60
2022-10-31T06:20:24.137Z,7.80
2022-10-31T06:21:24.125Z,8.20
2022-10-31T06:22:24.114Z,8.80
2022-10-31T06:23:24.124Z,8.20
2022-10-31T06:24:24.132Z,8.20
2022-10-31T06:25:24.081Z,8.10
2022-10-31T06:26:24.076Z,8.00
2022-10-31T06:27:24.056Z,8.30
2022-10-31T06:28:24.057Z,8.20
2022-10-31T06:29:24.259Z,8.40
2022-10-31T06:30:24.226Z,8.30
2022-10-31T06:31:24.016Z,8.30
2022-10-31T06:32:24.051Z,8.30
2022-10-31T06:33:24.240Z,8.30
2022-10-31T06:34:23.999Z,7.80
2022-10-31T06:35:24.003Z,8.00
2022-10-31T06:36:24.023Z,8.10
2022-10-31T06:37:23.959Z,7.90
2022-10-31T06:38:23.928Z,7.50
2022-10-31T06:39:23.934Z,8.20
2022-10-31T06:40:23.939Z,8.00
2022-10-31T06:41:23.927Z,8.20
2022-10-31T06:42:23.909Z,8.50
2022-10-31T06:43:23.913Z,8.40
2022-10-31T06:44:23.878Z,9.10
2022-10-31T06:45:23.851Z,8.60
2022-10-31T06:46:25.331Z,9.10
2022-10-31T06:47:23.879Z,8.70
2022-10-31T06:48:24.184Z,8.20
2022-10-31T06:49:23.811Z,9.00
2022-10-31T06:50:23.832Z,8.90
2022-10-31T06:51:24.052Z,9.10
2022-10-31T06:52:23.814Z,8.90
2022-10-31T06:53:23.792Z,8.40
2022-10-31T06:54:23.759Z,8.30
2022-10-31T06:55:23.758Z,8.90
2022-10-31T06:56:23.728Z,8.10
2022-10-31T06:57:23.752Z,8.60
2022-10-31T06:58:23.718Z,8.80
2022-10-31T06:59:23.729Z,9.40
2022-10-31T07:00:24.691Z,8.70
2022-10-31T07:01:23.813Z,9.10
2022-10-31T07:02:23.734Z,8.90
2022-10-31T07:03:23.656Z,9.10
2022-10-31T07:04:23.697Z,10.00
2022-10-31T07:05:23.630Z,10.70
2022-10-31T07:06:23.630Z,10.50
2022-10-31T07:07:23.623Z,9.40
2022-10-31T07:08:23.600Z,9.10
2022-10-31T07:09:23.602Z,8.30
2022-10-31T07:10:23.639Z,8.70
2022-10-31T07:11:23.583Z,7.80
2022-10-31T07:12:23.557Z,7.80
2022-10-31T07:13:23.559Z,8.10
2022-10-31T07:14:23.540Z,8.00
2022-10-31T07:15:23.529Z,7.80
2022-10-31T07:16:24.459Z,8.20
2022-10-31T07:17:28.744Z,8.10
2022-10-31T07:18:24.519Z,7.90
2022-10-31T07:19:23.478Z,8.40
2022-10-31T07:20:23.479Z,8.50
2022-10-31T07:21:23.437Z,7.60
2022-10-31T07:22:23.446Z,7.60
2022-10-31T07:23:24.386Z,7.30
2022-10-31T07:24:23.481Z,7.80
2022-10-31T07:25:23.405Z,7.50
2022-10-31T07:26:23.420Z,8.10
2022-10-31T07:27:23.369Z,8.10
2022-10-31T07:28:23.381Z,8.50
2022-10-31T07:29:23.363Z,8.40
2022-10-31T07:30:23.503Z,8.00
2022-10-31T07:31:23.561Z,7.90
2022-10-31T07:32:23.357Z,7.60
2022-10-31T07:33:23.314Z,7.40
2022-10-31T07:34:23.302Z,7.50
2022-10-31T07:35:23.364Z,7.60
2022-10-31T07:36:23.281Z,7.70
2022-10-31T07:37:23.293Z,7.60
2022-10-31T07:38:23.274Z,8.00
2022-10-31T07:39:23.233Z,7.60
2022-10-31T07:40:23.226Z,7.70
2022-10-31T07:41:23.216Z,7.80
2022-10-31T07:42:23.224Z,8.40
2022-10-31T07:43:23.491Z,8.00
2022-10-31T07:44:23.226Z,8.20
2022-10-31T07:45:23.173Z,7.60
2022-10-31T07:46:23.169Z,7.70
2022-10-31T07:47:23.163Z,7.70
2022-10-31T07:48:23.147Z,7.80
2022-10-31T07:49:23.138Z,8.90
2022-10-31T07:50:23.611Z,8.30
2022-10-31T07:51:23.149Z,8.00
2022-10-31T07:52:23.105Z,8.60
2022-10-31T07:53:23.099Z,8.10
2022-10-31T07:54:23.082Z,8.50
2022-10-31T07:55:23.094Z,8.30
2022-10-31T07:56:23.065Z,8.70
2022-10-31T07:57:25.170Z,8.70
2022-10-31T07:58:23.055Z,8.60
2022-10-31T07:59:23.988Z,9.00
2022-10-31T08:00:23.003Z,8.60
2022-10-31T08:01:23.017Z,9.60
2022-10-31T08:02:23.036Z,9.30
2022-10-31T08:03:22.972Z,9.20
2022-10-31T08:04:22.974Z,9.10
2022-10-31T08:05:22.972Z,9.40
2022-10-31T08:06:22.951Z,9.90
2022-10-31T08:07:22.999Z,9.40
2022-10-31T08:08:22.936Z,9.30
2022-10-31T08:09:22.905Z,9.40
2022-10-31T08:10:22.893Z,9.70
2022-10-31T08:11:22.883Z,9.30
2022-10-31T08:12:22.895Z,9.10
2022-10-31T08:13:22.891Z,10.00
2022-10-31T08:14:22.897Z,9.60
2022-10-31T08:15:22.845Z,9.10
2022-10-31T08:16:22.829Z,9.30
2022-10-31T08:17:24.280Z,9.20
2022-10-31T08:18:22.829Z,10.60
2022-10-31T08:19:22.815Z,10.20
2022-10-31T08:20:22.828Z,9.90
2022-10-31T08:21:22.776Z,9.90
2022-10-31T08:22:22.782Z,9.60
2022-10-31T08:23:22.748Z,9.10
2022-10-31T08:24:22.748Z,9.80
2022-10-31T08:25:22.724Z,10.10
2022-10-31T08:26:22.742Z,9.60
2022-10-31T08:27:22.722Z,9.60
2022-10-31T08:28:22.751Z,10.00
2022-10-31T08:29:22.747Z,10.10
2022-10-31T08:30:22.679Z,9.70
2022-10-31T08:31:22.697Z,10.30
2022-10-31T08:32:22.750Z,10.00
2022-10-31T08:33:23.601Z,9.80
2022-10-31T08:34:22.673Z,10.60
2022-10-31T08:35:22.620Z,10.40
2022-10-31T08:36:23.589Z,10.30
2022-10-31T08:37:22.601Z,10.70
2022-10-31T08:38:22.714Z,10.90
2022-10-31T08:39:22.614Z,11.00
2022-10-31T08:40:22.608Z,11.00
2022-10-31T08:41:22.563Z,10.00
2022-10-31T08:42:22.553Z,10.60
2022-10-31T08:43:23.487Z,10.90
2022-10-31T08:44:22.552Z,10.10
2022-10-31T08:45:22.504Z,10.80
2022-10-31T08:46:22.511Z,10.50
2022-10-31T08:47:22.491Z,11.00
2022-10-31T08:48:22.482Z,10.80
2022-10-31T08:49:22.473Z,11.10
2022-10-31T08:50:22.486Z,11.50
2022-10-31T08:51:22.433Z,11.50
2022-10-31T08:52:29.381Z,12.20
2022-10-31T08:53:23.417Z,11.90
2022-10-31T08:54:22.405Z,11.80
2022-10-31T08:55:22.397Z,11.40
2022-10-31T08:56:22.409Z,11.30
2022-10-31T08:57:22.379Z,11.60
2022-10-31T08:58:22.353Z,12.40
2022-10-31T08:59:22.349Z,12.30
2022-10-31T09:00:22.338Z,12.60
2022-10-31T09:01:22.498Z,11.50
2022-10-31T09:02:22.433Z,11.30
2022-10-31T09:03:22.301Z,12.00
2022-10-31T09:04:22.284Z,12.80
2022-10-31T09:05:22.288Z,12.30
2022-10-31T09:06:22.339Z,12.00
2022-10-31T09:07:22.280Z,12.00
2022-10-31T09:08:22.236Z,12.20
2022-10-31T09:09:22.222Z,12.40
2022-10-31T09:10:22.269Z,12.30
2022-10-31T09:11:22.248Z,13.00
2022-10-31T09:12:22.224Z,12.00
2022-10-31T09:13:24.180Z,12.80
2022-10-31T09:14:22.181Z,12.20
2022-10-31T09:15:22.162Z,12.50
2022-10-31T09:16:22.196Z,12.80
2022-10-31T09:17:22.154Z,12.60
2022-10-31T09:18:22.158Z,13.30
2022-10-31T09:19:22.126Z,12.50
2022-10-31T09:20:22.171Z,12.50
2022-10-31T09:21:22.123Z,12.70
2022-10-31T09:22:22.085Z,12.90
2022-10-31T09:23:22.085Z,12.80
2022-10-31T09:24:22.123Z,12.30
2022-10-31T09:25:22.058Z,13.00
2022-10-31T09:26:22.026Z,12.80
2022-10-31T09:27:22.080Z,13.00
2022-10-31T09:28:22.112Z,13.10
2022-10-31T09:29:22.193Z,12.10
2022-10-31T09:30:22.084Z,12.40
2022-10-31T09:31:21.976Z,12.60
2022-10-31T09:32:21.966Z,12.10
2022-10-31T09:33:21.988Z,12.30
2022-10-31T09:34:21.938Z,11.80
2022-10-31T09:35:24.840Z,11.70
2022-10-31T09:36:21.940Z,12.30
2022-10-31T09:37:21.909Z,11.70
2022-10-31T09:38:21.932Z,12.00
2022-10-31T09:39:21.890Z,11.50
2022-10-31T09:40:21.982Z,11.30
2022-10-31T09:41:21.947Z,11.30
2022-10-31T09:42:21.850Z,11.70
2022-10-31T09:43:21.869Z,12.00
2022-10-31T09:44:21.840Z,10.90
2022-10-31T09:45:21.842Z,12.00
2022-10-31T09:46:21.844Z,10.90
2022-10-31T09:47:21.801Z,11.20
2022-10-31T09:48:21.797Z,11.50
2022-10-31T09:49:21.814Z,11.10
2022-10-31T09:50:21.944Z,31.20
2022-10-31T09:51:21.764Z,33.20
2022-10-31T09:52:21.770Z,15.10
2022-10-31T09:53:21.737Z,13.20
2022-10-31T09:54:21.715Z,11.60
2022-10-31T09:55:21.730Z,15.10
2022-10-31T09:56:21.793Z,16.20
2022-10-31T09:57:21.708Z,16.30
2022-10-31T09:58:21.678Z,13.80
2022-10-31T09:59:21.685Z,14.00
2022-10-31T10:00:22.610Z,14.90
2022-10-31T10:01:21.800Z,12.20
2022-10-31T10:02:21.744Z,13.30
2022-10-31T10:03:21.624Z,11.00
2022-10-31T10:04:21.619Z,10.30
2022-10-31T10:05:21.607Z,11.00
2022-10-31T10:06:21.577Z,11.00
2022-10-31T10:07:21.621Z,11.00
2022-10-31T10:08:21.568Z,10.70
2022-10-31T10:10:21.592Z,9.60
2022-10-31T10:11:21.539Z,9.80
2022-10-31T10:12:21.521Z,10.20
2022-10-31T10:13:21.527Z,10.40
2022-10-31T10:14:21.496Z,10.60
2022-10-31T10:15:21.485Z,10.80
2022-10-31T10:16:21.489Z,10.30
2022-10-31T10:17:21.475Z,10.90
2022-10-31T10:18:21.489Z,10.50
2022-10-31T10:19:21.466Z,10.30
2022-10-31T10:20:21.526Z,10.30
2022-10-31T10:21:21.425Z,11.10
2022-10-31T10:22:21.410Z,10.30
2022-10-31T10:23:21.418Z,11.20
2022-10-31T10:24:21.418Z,10.80
2022-10-31T10:25:21.374Z,11.60
2022-10-31T10:26:21.436Z,11.30
2022-10-31T10:27:23.365Z,11.50
2022-10-31T10:28:22.296Z,11.10
2022-10-31T10:29:21.367Z,11.20
2022-10-31T10:30:21.311Z,11.40
2022-10-31T10:31:21.317Z,11.00
2022-10-31T10:32:21.294Z,11.30
2022-10-31T10:33:21.285Z,11.20
2022-10-31T10:34:21.278Z,11.10
2022-10-31T10:35:21.296Z,10.70
2022-10-31T10:36:21.244Z,10.40
2022-10-31T10:37:21.235Z,11.10
2022-10-31T10:38:21.220Z,11.20
2022-10-31T10:39:21.215Z,11.20
2022-10-31T10:40:21.219Z,11.10
2022-10-31T10:41:21.233Z,11.00
2022-10-31T10:42:21.349Z,11.30
2022-10-31T10:43:21.175Z,11.90
2022-10-31T10:44:21.160Z,11.90
2022-10-31T10:45:21.152Z,12.00
2022-10-31T10:46:21.140Z,11.20
2022-10-31T10:47:21.151Z,11.60
2022-10-31T10:48:21.109Z,12.10
2022-10-31T10:49:21.148Z,12.40
2022-10-31T10:50:21.090Z,11.90
2022-10-31T10:51:31.854Z,11.50
2022-10-31T10:53:22.053Z,11.40
2022-10-31T10:54:21.043Z,11.70
2022-10-31T10:55:21.079Z,12.10
2022-10-31T10:56:21.019Z,11.10
2022-10-31T10:57:21.019Z,11.90
2022-10-31T10:58:21.005Z,11.20
2022-10-31T10:59:21.002Z,11.90
2022-10-31T11:00:21.023Z,11.10
2022-10-31T11:01:20.968Z,11.70
2022-10-31T11:02:21.005Z,11.50
2022-10-31T11:03:20.952Z,11.60
2022-10-31T11:04:21.055Z,10.90
2022-10-31T11:05:20.923Z,12.20
2022-10-31T11:06:20.933Z,12.30
2022-10-31T11:07:20.894Z,11.90
2022-10-31T11:08:24.811Z,12.00
2022-10-31T11:09:21.885Z,12.30
2022-10-31T11:10:20.888Z,11.20
2022-10-31T11:11:20.866Z,11.60
2022-10-31T11:12:21.195Z,12.10
2022-10-31T11:13:20.838Z,11.60
2022-10-31T11:14:20.820Z,12.20
2022-10-31T11:15:20.857Z,11.30
2022-10-31T11:16:20.827Z,12.10
2022-10-31T11:17:20.880Z,12.70
2022-10-31T11:18:20.845Z,11.80
2022-10-31T11:19:20.795Z,12.00
2022-10-31T11:20:22.711Z,12.80
2022-10-31T11:21:20.784Z,12.10
2022-10-31T11:22:20.741Z,11.40
2022-10-31T11:23:20.736Z,11.70
2022-10-31T11:24:20.703Z,12.00
2022-10-31T11:25:20.705Z,11.60
2022-10-31T11:26:20.686Z,12.50
2022-10-31T11:27:20.742Z,12.60
2022-10-31T11:28:20.702Z,11.90
2022-10-31T11:29:20.655Z,11.50
2022-10-31T11:30:20.656Z,11.70
2022-10-31T11:31:20.662Z,12.20
2022-10-31T11:32:20.643Z,11.70
2022-10-31T11:33:20.606Z,11.20
2022-10-31T11:34:20.617Z,11.40
2022-10-31T11:35:20.605Z,10.80
2022-10-31T11:36:20.671Z,12.00
2022-10-31T11:37:20.592Z,11.60
2022-10-31T11:38:20.555Z,10.90
2022-10-31T11:39:20.546Z,10.60
2022-10-31T11:40:20.591Z,11.00
2022-10-31T11:41:20.524Z,10.80
2022-10-31T11:42:20.525Z,10.40
2022-10-31T11:43:20.504Z,10.10
2022-10-31T11:44:20.508Z,10.20
2022-10-31T11:45:20.512Z,10.70
2022-10-31T11:46:20.471Z,11.00
2022-10-31T11:47:20.474Z,10.60
2022-10-31T11:48:20.436Z,10.60
2022-10-31T11:49:20.429Z,11.10
2022-10-31T11:50:20.423Z,11.20
2022-10-31T11:51:20.441Z,10.70
2022-10-31T11:52:20.440Z,11.10
2022-10-31T11:53:20.375Z,10.00
2022-10-31T11:54:20.368Z,10.30
2022-10-31T11:55:20.376Z,10.10
2022-10-31T11:56:20.341Z,9.50
2022-10-31T11:57:20.342Z,9.70
2022-10-31T11:58:21.271Z,10.20
2022-10-31T11:59:20.333Z,10.20
2022-10-31T12:00:20.459Z,9.70
2022-10-31T12:01:20.324Z,10.30
2022-10-31T12:02:20.347Z,9.60
2022-10-31T12:03:20.272Z,10.20
2022-10-31T12:04:20.884Z,9.40
2022-10-31T12:05:20.246Z,10.40
2022-10-31T12:06:20.249Z,10.40
2022-10-31T12:07:20.224Z,10.30
2022-10-31T12:08:20.274Z,10.20
2022-10-31T12:09:20.209Z,9.80
2022-10-31T12:10:21.358Z,10.10
2022-10-31T12:11:21.637Z,8.80
2022-10-31T12:12:20.189Z,9.40
2022-10-31T12:13:20.186Z,10.00
2022-10-31T12:14:20.182Z,9.30
2022-10-31T12:15:20.172Z,10.30
2022-10-31T12:16:20.162Z,9.60
2022-10-31T12:17:20.208Z,9.70
2022-10-31T12:18:20.146Z,9.50
2022-10-31T12:19:20.132Z,9.60
2022-10-31T12:20:20.098Z,9.50
2022-10-31T12:21:20.084Z,9.20
2022-10-31T12:22:20.049Z,9.80
2022-10-31T12:23:20.090Z,9.60
2022-10-31T12:24:20.064Z,9.00
2022-10-31T12:25:20.068Z,9.20
2022-10-31T12:26:20.021Z,8.90
2022-10-31T12:27:20.035Z,9.30
2022-10-31T12:28:20.045Z,8.90
2022-10-31T12:29:20.016Z,9.00
2022-10-31T12:30:20.923Z,8.40
2022-10-31T12:31:19.958Z,8.10
2022-10-31T12:32:19.933Z,8.20
2022-10-31T12:33:19.966Z,8.40
2022-10-31T12:34:19.945Z,7.80
2022-10-31T12:35:19.926Z,8.90
2022-10-31T12:36:19.894Z,8.20
2022-10-31T12:37:19.913Z,7.70
2022-10-31T12:38:19.881Z,7.90
2022-10-31T12:39:19.898Z,7.10
2022-10-31T12:40:19.849Z,7.10
2022-10-31T12:41:19.939Z,7.10
2022-10-31T12:42:19.887Z,7.60
2022-10-31T12:43:19.846Z,7.70
2022-10-31T12:44:20.778Z,7.30
2022-10-31T12:45:19.906Z,6.20
2022-10-31T12:46:19.777Z,6.70
2022-10-31T12:47:19.808Z,6.10
2022-10-31T12:48:19.764Z,5.90
2022-10-31T12:49:19.873Z,5.50
2022-10-31T12:50:19.768Z,5.00
2022-10-31T12:51:19.730Z,5.20
2022-10-31T12:52:19.720Z,5.10
2022-10-31T12:54:19.720Z,5.20
2022-10-31T12:55:19.693Z,4.50
2022-10-31T12:56:19.695Z,5.10
2022-10-31T12:57:19.782Z,4.60
2022-10-31T12:58:19.671Z,4.80
2022-10-31T12:59:19.661Z,4.70
2022-10-31T13:00:19.833Z,4.80
2022-10-31T13:01:19.761Z,4.60
2022-10-31T13:02:19.677Z,4.40
2022-10-31T13:03:19.633Z,4.50
2022-10-31T13:04:19.591Z,4.40
2022-10-31T13:05:19.578Z,4.40
2022-10-31T13:06:19.577Z,5.00
2022-10-31T13:07:19.599Z,4.10
2022-10-31T13:08:19.552Z,4.30
2022-10-31T13:09:19.527Z,4.80
2022-10-31T13:10:19.528Z,4.20
2022-10-31T13:11:19.529Z,4.50
2022-10-31T13:12:19.546Z,4.00
2022-10-31T13:13:19.488Z,4.00
2022-10-31T13:14:19.482Z,3.90